createdAt,value
2023-05-20T00:00:34.490Z,101294.66
2023-05-20T00:03:01.393Z,101291.25
2023-05-20T00:05:28.497Z,101288.44
2023-05-20T00:07:54.982Z,101285.81
2023-05-20T00:10:21.567Z,101286.22
2023-05-20T00:12:48.104Z,101283.63
2023-05-20T00:15:14.616Z,101281.91
2023-05-20T00:17:41.292Z,101277.31
2023-05-20T00:20:08.630Z,101275.50
2023-05-20T00:22:35.186Z,101276.16
2023-05-20T00:25:01.964Z,101279.03
2023-05-20T00:27:28.522Z,101271.63
2023-05-20T00:29:55.081Z,101276.34
2023-05-20T00:32:21.694Z,101277.47
2023-05-20T00:34:58.310Z,101279.06
2023-05-20T00:37:25.352Z,101276.09
2023-05-20T00:39:51.943Z,101269.16
2023-05-20T00:42:25.468Z,101269.47
2023-05-20T00:44:52.356Z,101267.03
2023-05-20T00:47:20.688Z,101266.75
2023-05-20T00:49:50.423Z,101264.97
2023-05-20T00:52:18.521Z,101266.69
2023-05-20T00:54:45.182Z,101273.78
2023-05-20T00:57:12.215Z,101270.97
2023-05-20T00:59:39.285Z,101271.97
2023-05-20T01:02:06.064Z,101270.47
2023-05-20T01:04:33.419Z,101278.47
2023-05-20T01:07:02.508Z,101279.06
2023-05-20T01:09:31.185Z,101277.03
2023-05-20T01:12:22.604Z,101265.31
2023-05-20T01:14:51.393Z,101280.75
2023-05-20T01:17:20.961Z,101274.44
2023-05-20T01:19:48.924Z,101270.72
2023-05-20T01:22:16.216Z,101277.16
2023-05-20T01:24:48.315Z,101276.31
2023-05-20T01:27:15.168Z,101274.00
2023-05-20T01:29:42.543Z,101272.44
2023-05-20T01:32:12.891Z,101280.47
2023-05-20T01:34:41.442Z,101277.34
2023-05-20T01:37:08.615Z,101269.72
2023-05-20T01:39:37.835Z,101268.72
2023-05-20T01:42:05.914Z,101266.44
2023-05-20T01:44:32.866Z,101263.88
2023-05-20T01:47:00.060Z,101272.00
2023-05-20T01:49:26.660Z,101261.66
2023-05-20T01:51:53.183Z,101262.69
2023-05-20T01:54:19.738Z,101235.06
2023-05-20T01:56:46.840Z,101262.09
2023-05-20T01:59:13.441Z,101245.28
2023-05-20T02:01:40.065Z,101247.06
2023-05-20T02:04:06.622Z,101251.69
2023-05-20T02:06:33.229Z,101247.34
2023-05-20T02:08:59.897Z,101253.06
2023-05-20T02:11:26.534Z,101252.50
2023-05-20T02:13:53.005Z,101246.81
2023-05-20T02:16:19.588Z,101252.41
2023-05-20T02:18:46.175Z,101252.84
2023-05-20T02:21:12.677Z,101256.28
2023-05-20T02:23:39.586Z,101248.25
2023-05-20T02:26:06.141Z,101258.53
2023-05-20T02:28:32.709Z,101256.09
2023-05-20T02:30:59.169Z,101254.09
2023-05-20T02:33:29.133Z,101253.25
2023-05-20T02:35:55.812Z,101259.28
2023-05-20T02:38:22.484Z,101262.19
2023-05-20T02:40:49.046Z,101258.25
2023-05-20T02:43:15.542Z,101266.44
2023-05-20T02:45:42.319Z,101269.16
2023-05-20T02:48:09.381Z,101265.03
2023-05-20T02:50:39.176Z,101267.56
2023-05-20T02:53:05.984Z,101267.28
2023-05-20T02:55:35.382Z,101271.91
2023-05-20T02:58:02.294Z,101265.69
2023-05-20T03:00:30.770Z,101262.31
2023-05-20T03:02:59.069Z,101262.56
2023-05-20T03:05:27.406Z,101260.38
2023-05-20T03:07:53.969Z,101260.25
2023-05-20T03:10:20.480Z,101260.44
2023-05-20T03:12:47.051Z,101260.00
2023-05-20T03:15:13.873Z,101262.09
2023-05-20T03:17:40.742Z,101262.44
2023-05-20T03:20:08.109Z,101269.81
2023-05-20T03:22:34.677Z,101264.53
2023-05-20T03:25:02.463Z,101270.38
2023-05-20T03:27:29.001Z,101266.13
2023-05-20T03:29:55.758Z,101274.16
2023-05-20T03:32:22.370Z,101268.22
2023-05-20T03:34:48.935Z,101266.25
2023-05-20T03:37:15.629Z,101264.84
2023-05-20T03:39:42.174Z,101260.47
2023-05-20T03:42:08.681Z,101270.31
2023-05-20T03:44:35.331Z,101269.00
2023-05-20T03:47:02.095Z,101265.91
2023-05-20T03:49:28.663Z,101266.38
2023-05-20T03:51:55.202Z,101263.34
2023-05-20T03:54:21.799Z,101263.25
2023-05-20T03:56:49.383Z,101269.38
2023-05-20T03:59:15.925Z,101266.94
2023-05-20T04:01:42.619Z,101262.38
2023-05-20T04:04:09.297Z,101261.25
2023-05-20T04:06:36.085Z,101272.25
2023-05-20T04:09:02.761Z,101265.81
2023-05-20T04:11:29.310Z,101264.50
2023-05-20T04:13:55.822Z,101267.94
2023-05-20T04:16:22.449Z,101268.25
2023-05-20T04:18:48.999Z,101274.69
2023-05-20T04:21:15.831Z,101271.97
2023-05-20T04:23:42.379Z,101276.72
2023-05-20T04:26:08.861Z,101274.00
2023-05-20T04:28:37.723Z,101282.72
2023-05-20T04:31:04.649Z,101279.28
2023-05-20T04:33:32.951Z,101279.44
2023-05-20T04:35:59.681Z,101282.16
2023-05-20T04:38:32.609Z,101270.72
2023-05-20T04:40:59.723Z,101273.44
2023-05-20T04:43:30.209Z,101268.56
2023-05-20T04:45:57.425Z,101273.97
2023-05-20T04:48:24.263Z,101269.50
2023-05-20T04:50:52.078Z,101273.47
2023-05-20T04:53:24.361Z,101259.09
2023-05-20T04:55:54.630Z,101265.31
2023-05-20T04:58:24.237Z,101269.16
2023-05-20T05:00:51.978Z,101265.53
2023-05-20T05:03:18.786Z,101265.31
2023-05-20T05:05:45.306Z,101262.72
2023-05-20T05:08:11.876Z,101269.72
2023-05-20T05:10:38.448Z,101273.72
2023-05-20T05:13:05.068Z,101271.22
2023-05-20T05:15:31.681Z,101280.25
2023-05-20T05:17:58.917Z,101281.41
2023-05-20T05:20:25.527Z,101279.00
2023-05-20T05:22:52.121Z,101277.50
2023-05-20T05:25:18.737Z,101271.97
2023-05-20T05:27:45.340Z,101268.41
2023-05-20T05:30:11.889Z,101273.28
2023-05-20T05:32:38.767Z,101276.66
2023-05-20T05:35:08.092Z,101276.00
2023-05-20T05:37:35.215Z,101281.84
2023-05-20T05:40:01.759Z,101274.19
2023-05-20T05:42:28.244Z,101272.06
2023-05-20T05:44:54.808Z,101280.91
2023-05-20T05:47:21.649Z,101280.22
2023-05-20T05:49:48.284Z,101268.66
2023-05-20T05:52:15.037Z,101283.00
2023-05-20T05:54:41.530Z,101283.75
2023-05-20T05:57:09.879Z,101289.81
2023-05-20T05:59:36.574Z,101287.63
2023-05-20T06:02:03.305Z,101290.38
2023-05-20T06:04:30.007Z,101284.78
2023-05-20T06:06:56.693Z,101285.31
2023-05-20T06:09:23.448Z,101284.41
2023-05-20T06:11:49.980Z,101278.97
2023-05-20T06:14:16.621Z,101283.59
2023-05-20T06:16:43.562Z,101277.06
2023-05-20T06:19:10.211Z,101273.06
2023-05-20T06:21:36.936Z,101278.03
2023-05-20T06:24:03.868Z,101270.59
2023-05-20T06:26:30.627Z,101274.97
2023-05-20T06:28:57.299Z,101277.50
2023-05-20T06:31:23.914Z,101280.81
2023-05-20T06:33:50.780Z,101258.81
2023-05-20T06:36:17.933Z,101270.41
2023-05-20T06:38:44.599Z,101269.69
2023-05-20T06:41:11.195Z,101267.25
2023-05-20T06:43:37.755Z,101262.19
2023-05-20T06:46:04.799Z,101267.41
2023-05-20T06:48:31.401Z,101263.84
2023-05-20T06:50:58.026Z,101259.16
2023-05-20T06:53:24.750Z,101260.41
2023-05-20T06:55:55.505Z,101259.47
2023-05-20T06:58:22.111Z,101258.09
2023-05-20T07:00:48.660Z,101270.84
2023-05-20T07:03:15.288Z,101261.38
2023-05-20T07:05:41.843Z,101255.50
2023-05-20T07:08:08.541Z,101254.66
2023-05-20T07:10:35.208Z,101257.59
2023-05-20T07:13:02.089Z,101250.09
2023-05-20T07:15:28.704Z,101249.53
2023-05-20T07:17:55.374Z,101251.66
2023-05-20T07:20:22.020Z,101255.47
2023-05-20T07:22:50.749Z,101254.50
2023-05-20T07:25:17.550Z,101256.31
2023-05-20T07:27:44.267Z,101248.66
2023-05-20T07:30:11.130Z,101256.47
2023-05-20T07:32:37.747Z,101253.44
2023-05-20T07:35:04.659Z,101245.69
2023-05-20T07:37:31.343Z,101247.06
2023-05-20T07:39:57.846Z,101239.16
2023-05-20T07:42:24.383Z,101244.41
2023-05-20T07:44:51.021Z,101240.75
2023-05-20T07:47:17.579Z,101231.50
2023-05-20T07:49:44.482Z,101241.53
2023-05-20T07:52:11.347Z,101237.69
2023-05-20T07:54:37.896Z,101236.06
2023-05-20T07:57:04.747Z,101235.22
2023-05-20T07:59:31.538Z,101232.47
2023-05-20T08:01:58.428Z,101231.69
2023-05-20T08:04:25.613Z,101235.75
2023-05-20T08:06:53.152Z,101224.78
2023-05-20T08:09:19.965Z,101231.03
2023-05-20T08:11:47.571Z,101234.78
2023-05-20T08:14:14.451Z,101228.69
2023-05-20T08:16:42.243Z,101233.59
2023-05-20T08:19:08.895Z,101233.97
2023-05-20T08:21:35.582Z,101234.22
2023-05-20T08:24:02.308Z,101233.91
2023-05-20T08:26:28.779Z,101236.56
2023-05-20T08:28:55.767Z,101234.28
2023-05-20T08:31:22.401Z,101226.78
2023-05-20T08:33:50.860Z,101226.59
2023-05-20T08:36:19.437Z,101226.66
2023-05-20T08:38:46.143Z,101236.84
2023-05-20T08:41:12.915Z,101232.59
2023-05-20T08:43:39.878Z,101231.81
2023-05-20T08:46:07.209Z,101219.06
2023-05-20T08:48:33.914Z,101222.31
2023-05-20T08:51:03.333Z,101221.06
2023-05-20T08:53:29.981Z,101217.84
2023-05-20T08:56:01.464Z,101217.94
2023-05-20T08:58:29.435Z,101218.34
2023-05-20T09:00:56.369Z,101211.75
2023-05-20T09:03:24.468Z,101211.63
2023-05-20T09:05:51.509Z,101212.31
2023-05-20T09:08:18.041Z,101215.03
2023-05-20T09:10:44.554Z,101207.56
2023-05-20T09:13:11.523Z,101208.63
2023-05-20T09:15:39.037Z,101212.16
2023-05-20T09:18:09.192Z,101198.63
2023-05-20T09:20:37.416Z,101202.97
2023-05-20T09:23:05.716Z,101200.53
2023-05-20T09:25:32.990Z,101204.16
2023-05-20T09:27:59.680Z,101203.66
2023-05-20T09:30:26.761Z,101207.06
2023-05-20T09:32:56.958Z,101211.50
2023-05-20T09:35:24.204Z,101205.25
2023-05-20T09:37:55.329Z,101200.53
2023-05-20T09:40:30.931Z,101209.97
2023-05-20T09:43:01.715Z,101195.41
2023-05-20T09:45:28.664Z,101198.66
2023-05-20T09:47:56.479Z,101189.56
2023-05-20T09:50:24.576Z,101193.38
2023-05-20T09:52:52.717Z,101191.94
2023-05-20T09:55:20.999Z,101197.50
2023-05-20T09:57:47.768Z,101193.22
2023-05-20T10:00:17.443Z,101193.84
2023-05-20T10:02:46.627Z,101185.78
2023-05-20T10:05:19.413Z,101183.63
2023-05-20T10:07:54.426Z,101185.72
2023-05-20T10:10:33.352Z,101184.66
2023-05-20T10:13:14.968Z,101187.84
2023-05-20T10:16:18.041Z,101184.94
2023-05-20T10:19:21.804Z,101181.97
2023-05-20T10:22:02.117Z,101184.28
2023-05-20T10:24:34.624Z,101176.63
2023-05-20T10:27:03.307Z,101176.03
2023-05-20T10:29:30.393Z,101173.41
2023-05-20T10:31:57.205Z,101176.59
2023-05-20T10:34:24.046Z,101180.00
2023-05-20T10:36:57.527Z,101166.22
2023-05-20T10:39:28.663Z,101162.81
2023-05-20T10:42:15.471Z,101158.44
2023-05-20T10:44:46.424Z,101161.91
2023-05-20T10:49:46.747Z,101143.13
2023-05-20T10:52:13.998Z,101140.97
2023-05-20T10:54:48.730Z,101141.31
2023-05-20T10:57:16.706Z,101129.66
2023-05-20T10:59:43.309Z,101141.84
2023-05-20T11:02:11.423Z,101144.72
2023-05-20T11:04:38.774Z,101129.25
2023-05-20T11:07:05.499Z,101125.44
2023-05-20T11:09:32.153Z,101125.41
2023-05-20T11:11:58.685Z,101118.31
2023-05-20T11:14:25.453Z,101117.06
2023-05-20T11:16:53.494Z,101121.72
2023-05-20T11:19:20.882Z,101113.53
2023-05-20T11:21:48.203Z,101112.94
2023-05-20T11:24:15.430Z,101114.59
2023-05-20T11:26:42.055Z,101110.75
2023-05-20T11:29:08.719Z,101111.97
2023-05-20T11:31:38.189Z,101102.09
2023-05-20T11:34:04.934Z,101107.88
2023-05-20T11:36:32.470Z,101103.50
2023-05-20T11:39:00.292Z,101107.69
2023-05-20T11:41:28.047Z,101103.88
2023-05-20T11:43:59.363Z,101110.41
2023-05-20T11:46:30.215Z,101116.69
2023-05-20T11:48:57.615Z,101112.59
2023-05-20T11:51:27.138Z,101113.78
2023-05-20T11:53:59.378Z,101117.88
2023-05-20T11:56:26.181Z,101117.72
2023-05-20T11:58:52.779Z,101108.28
2023-05-20T12:01:22.828Z,101117.59
2023-05-20T12:03:50.115Z,101105.59
2023-05-20T12:06:17.750Z,101107.09
2023-05-20T12:08:44.353Z,101103.38
2023-05-20T12:11:10.989Z,101100.78
2023-05-20T12:13:37.846Z,101105.19
2023-05-20T12:16:06.204Z,101103.91
2023-05-20T12:18:33.458Z,101103.56
2023-05-20T12:21:01.377Z,101096.38
2023-05-20T12:23:30.802Z,101101.31
2023-05-20T12:25:57.377Z,101101.03
2023-05-20T12:28:23.946Z,101092.16
2023-05-20T12:30:50.646Z,101097.41
2023-05-20T12:33:17.211Z,101104.00
2023-05-20T12:35:44.480Z,101105.78
2023-05-20T12:38:11.298Z,101104.47
2023-05-20T12:40:38.390Z,101106.31
2023-05-20T12:43:05.618Z,101094.81
2023-05-20T12:45:32.254Z,101092.84
2023-05-20T12:47:59.344Z,101077.84
2023-05-20T12:50:26.107Z,101082.78
2023-05-20T12:52:52.720Z,101085.16
2023-05-20T12:55:19.405Z,101077.59
2023-05-20T12:57:46.891Z,101062.66
2023-05-20T13:00:14.273Z,101061.31
2023-05-20T13:02:42.324Z,101066.22
2023-05-20T13:05:09.561Z,101078.84
2023-05-20T13:07:36.213Z,101068.03
2023-05-20T13:10:02.730Z,101062.66
2023-05-20T13:12:29.677Z,101058.56
2023-05-20T13:14:56.269Z,101050.84
2023-05-20T13:17:22.805Z,101056.25
2023-05-20T13:19:49.386Z,101061.00
2023-05-20T13:22:16.221Z,101063.59
2023-05-20T13:24:42.826Z,101054.34
2023-05-20T13:27:09.584Z,101063.81
2023-05-20T13:29:36.201Z,101057.50
2023-05-20T13:32:03.964Z,101055.13
2023-05-20T13:34:31.667Z,101046.72
2023-05-20T13:36:58.313Z,101047.00
2023-05-20T13:39:24.958Z,101050.41
2023-05-20T13:41:53.461Z,101047.63
2023-05-20T13:44:20.653Z,101048.03
2023-05-20T13:46:47.366Z,101044.25
2023-05-20T13:49:13.987Z,101047.28
2023-05-20T13:51:40.566Z,101049.22
2023-05-20T13:54:07.341Z,101047.09
2023-05-20T13:56:34.204Z,101045.69
2023-05-20T13:59:01.185Z,101045.31
2023-05-20T14:01:30.239Z,101033.88
2023-05-20T14:03:56.880Z,101032.41
2023-05-20T14:06:23.627Z,101036.88
2023-05-20T14:08:50.243Z,101033.03
2023-05-20T14:11:16.753Z,101033.03
2023-05-20T14:13:45.166Z,101034.94
2023-05-20T14:16:11.699Z,101029.78
2023-05-20T14:18:38.266Z,101019.03
2023-05-20T14:21:05.003Z,101029.06
2023-05-20T14:23:31.518Z,101025.91
2023-05-20T14:25:58.023Z,101034.16
2023-05-20T14:28:24.549Z,101036.84
2023-05-20T14:30:51.260Z,101031.78
2023-05-20T14:33:17.765Z,101024.00
2023-05-20T14:35:44.267Z,101026.81
2023-05-20T14:38:10.909Z,101025.38
2023-05-20T14:40:37.698Z,101024.16
2023-05-20T14:43:04.463Z,101024.59
2023-05-20T14:45:31.140Z,101024.56
2023-05-20T14:47:57.631Z,101022.06
2023-05-20T14:50:24.296Z,101006.69
2023-05-20T14:52:50.862Z,101011.88
2023-05-20T14:55:17.489Z,101013.84
2023-05-20T14:57:44.111Z,101019.06
2023-05-20T15:00:11.545Z,101010.66
2023-05-20T15:02:38.125Z,101007.50
2023-05-20T15:05:05.057Z,101008.16
2023-05-20T15:07:31.593Z,101007.81
2023-05-20T15:09:58.166Z,101007.41
2023-05-20T15:12:24.741Z,101005.91
2023-05-20T15:14:51.297Z,100997.44
2023-05-20T15:17:17.824Z,100995.09
2023-05-20T15:19:44.530Z,100997.69
2023-05-20T15:22:11.062Z,100999.78
2023-05-20T15:24:37.642Z,100996.22
2023-05-20T15:27:04.676Z,101001.72
2023-05-20T15:29:31.292Z,100994.16
2023-05-20T15:31:58.306Z,100983.31
2023-05-20T15:34:25.293Z,100998.59
2023-05-20T15:36:51.946Z,100995.47
2023-05-20T15:39:18.463Z,100986.75
2023-05-20T15:41:47.901Z,100988.88
2023-05-20T15:44:14.447Z,100988.19
2023-05-20T15:46:41.319Z,100996.38
2023-05-20T15:49:07.922Z,100993.28
2023-05-20T15:51:34.481Z,100985.63
2023-05-20T15:54:01.089Z,100987.22
2023-05-20T15:56:29.323Z,100983.69
2023-05-20T15:58:56.269Z,100982.09
2023-05-20T16:01:23.524Z,100981.31
2023-05-20T16:03:50.273Z,100984.88
2023-05-20T16:06:17.098Z,100988.63
2023-05-20T16:08:43.619Z,100977.56
2023-05-20T16:11:10.528Z,100981.81
2023-05-20T16:13:37.105Z,100986.56
2023-05-20T16:16:03.852Z,100991.56
2023-05-20T16:18:30.660Z,100970.28
2023-05-20T16:20:57.631Z,100988.59
2023-05-20T16:23:24.362Z,100984.09
2023-05-20T16:25:51.350Z,100981.63
2023-05-20T16:28:17.906Z,100979.53
2023-05-20T16:30:44.415Z,100977.97
2023-05-20T16:33:11.253Z,100979.94
2023-05-20T16:35:37.909Z,100986.56
2023-05-20T16:38:04.492Z,100991.56
2023-05-20T16:40:31.231Z,100986.59
2023-05-20T16:42:57.872Z,100982.88
2023-05-20T16:45:24.449Z,100993.94
2023-05-20T16:47:51.635Z,100996.44
2023-05-20T16:50:18.466Z,100991.59
2023-05-20T16:52:45.105Z,100993.75
2023-05-20T16:55:13.611Z,100996.25
2023-05-20T16:57:40.117Z,100996.75
2023-05-20T17:00:08.692Z,101005.03
2023-05-20T17:02:36.017Z,100999.94
2023-05-20T17:05:02.614Z,100999.53
2023-05-20T17:07:29.197Z,101001.03
2023-05-20T17:09:55.832Z,100999.53
2023-05-20T17:12:22.363Z,101004.00
2023-05-20T17:14:48.893Z,101005.91
2023-05-20T17:17:15.595Z,101008.25
2023-05-20T17:19:42.224Z,101002.13
2023-05-20T17:22:08.876Z,100998.09
2023-05-20T17:24:35.816Z,101006.59
2023-05-20T17:27:03.635Z,101006.75
2023-05-20T17:29:30.199Z,101008.03
2023-05-20T17:31:56.756Z,101006.56
2023-05-20T17:34:23.346Z,101010.56
2023-05-20T17:36:49.906Z,101005.25
2023-05-20T17:39:17.028Z,101011.56
2023-05-20T17:41:44.317Z,101023.66
2023-05-20T17:44:10.823Z,101018.28
2023-05-20T17:46:37.643Z,101015.34
2023-05-20T17:49:04.309Z,101011.00
2023-05-20T17:51:31.815Z,101017.31
2023-05-20T17:53:58.746Z,101011.38
2023-05-20T17:56:26.527Z,101011.34
2023-05-20T17:58:54.258Z,101009.00
2023-05-20T18:01:23.572Z,101006.88
2023-05-20T18:03:50.720Z,101007.44
2023-05-20T18:06:18.013Z,101012.91
2023-05-20T18:08:44.668Z,101020.31
2023-05-20T18:11:11.206Z,101016.81
2023-05-20T18:13:37.752Z,101014.84
2023-05-20T18:16:05.018Z,101029.38
2023-05-20T18:18:31.705Z,101026.56
2023-05-20T18:20:58.245Z,101019.56
2023-05-20T18:23:24.785Z,101022.69
2023-05-20T18:25:51.566Z,101037.19
2023-05-20T18:28:18.158Z,101028.91
2023-05-20T18:30:44.773Z,101037.09
2023-05-20T18:33:11.473Z,101034.28
2023-05-20T18:35:39.319Z,101039.38
2023-05-20T18:38:07.163Z,101042.72
2023-05-20T18:40:33.977Z,101039.38
2023-05-20T18:43:01.112Z,101042.25
2023-05-20T18:45:27.986Z,101045.59
2023-05-20T18:47:54.820Z,101040.41
2023-05-20T18:50:21.557Z,101036.75
2023-05-20T18:52:48.095Z,101045.38
2023-05-20T18:55:14.713Z,101036.56
2023-05-20T18:57:41.249Z,101038.56
2023-05-20T19:00:12.013Z,101031.00
2023-05-20T19:02:40.124Z,101031.41
2023-05-20T19:05:11.407Z,101042.19
2023-05-20T19:07:38.830Z,101029.41
2023-05-20T19:10:06.239Z,101039.88
2023-05-20T19:12:32.897Z,101028.53
2023-05-20T19:15:00.255Z,101025.31
2023-05-20T19:17:26.833Z,101037.31
2023-05-20T19:19:53.496Z,101031.94
2023-05-20T19:22:20.221Z,101032.91
2023-05-20T19:24:46.729Z,101031.19
2023-05-20T19:27:13.257Z,101029.59
2023-05-20T19:29:39.940Z,101038.84
2023-05-20T19:32:06.691Z,101036.88
2023-05-20T19:34:33.302Z,101040.47
2023-05-20T19:36:59.887Z,101033.19
2023-05-20T19:39:26.996Z,101038.19
2023-05-20T19:41:53.701Z,101039.09
2023-05-20T19:44:20.528Z,101034.19
2023-05-20T19:46:47.179Z,101030.78
2023-05-20T19:49:13.757Z,101028.22
2023-05-20T19:51:40.472Z,101024.63
2023-05-20T19:54:07.228Z,101027.75
2023-05-20T19:56:33.903Z,101035.00
2023-05-20T19:59:01.836Z,101027.22
2023-05-20T20:01:28.606Z,101032.78
2023-05-20T20:03:55.382Z,101036.75
2023-05-20T20:06:22.336Z,101035.41
2023-05-20T20:08:49.234Z,101031.63
2023-05-20T20:11:15.857Z,101037.03
2023-05-20T20:13:42.395Z,101034.53
2023-05-20T20:16:09.023Z,101035.72
2023-05-20T20:18:35.703Z,101033.38
2023-05-20T20:21:05.771Z,101037.16
2023-05-20T20:23:33.079Z,101034.28
2023-05-20T20:25:59.689Z,101038.63
2023-05-20T20:28:26.374Z,101033.84
2023-05-20T20:30:53.096Z,101040.34
2023-05-20T20:33:19.786Z,101041.09
2023-05-20T20:35:46.809Z,101050.19
2023-05-20T20:38:13.492Z,101040.53
2023-05-20T20:40:41.512Z,101046.69
2023-05-20T20:43:09.073Z,101045.56
2023-05-20T20:45:38.444Z,101047.06
2023-05-20T20:48:07.713Z,101041.84
2023-05-20T20:50:35.770Z,101039.53
2023-05-20T20:53:02.683Z,101040.59
2023-05-20T20:55:32.227Z,101040.97
2023-05-20T20:58:02.844Z,101034.50
2023-05-20T21:00:29.877Z,101023.44
2023-05-20T21:02:56.469Z,101025.81
2023-05-20T21:05:26.759Z,101024.31
2023-05-20T21:07:58.358Z,101026.91
2023-05-20T21:10:29.838Z,101036.16
2023-05-20T21:12:59.628Z,101030.88
2023-05-20T21:15:26.552Z,101023.72
2023-05-20T21:17:53.525Z,101021.81
2023-05-20T21:20:21.493Z,101018.59
2023-05-20T21:22:48.317Z,101019.13
2023-05-20T21:25:15.036Z,101020.97
2023-05-20T21:27:41.742Z,101014.50
2023-05-20T21:30:12.071Z,101014.50
2023-05-20T21:32:38.933Z,101017.25
2023-05-20T21:35:06.056Z,101019.66
2023-05-20T21:37:32.575Z,101016.06
2023-05-20T21:39:59.182Z,101025.13
2023-05-20T21:42:25.928Z,101023.59
2023-05-20T21:44:52.491Z,101025.66
2023-05-20T21:47:20.660Z,101025.16
2023-05-20T21:49:48.151Z,101020.00
2023-05-20T21:52:15.597Z,101024.28
2023-05-20T21:54:42.150Z,101038.31
2023-05-20T21:57:08.733Z,101021.72
2023-05-20T21:59:35.294Z,101025.66
2023-05-20T22:02:02.274Z,101022.41
2023-05-20T22:04:28.938Z,101021.72
2023-05-20T22:06:56.247Z,101030.63
2023-05-20T22:09:22.873Z,101029.78
2023-05-20T22:11:49.801Z,101027.38
2023-05-20T22:14:16.901Z,101031.81
2023-05-20T22:16:46.807Z,101026.88
2023-05-20T22:19:17.390Z,101038.81
2023-05-20T22:24:14.747Z,101031.47
2023-05-20T22:26:41.348Z,101031.28
2023-05-20T22:29:08.028Z,101032.44
2023-05-20T22:31:34.671Z,101038.41
2023-05-20T22:34:01.311Z,101036.16
2023-05-20T22:36:28.168Z,101036.81
2023-05-20T22:38:54.805Z,101033.59
2023-05-20T22:41:21.731Z,101025.75
2023-05-20T22:43:48.332Z,101023.53
2023-05-20T22:46:14.938Z,101024.38
2023-05-20T22:48:41.711Z,101029.16
2023-05-20T22:51:08.905Z,101019.41
2023-05-20T22:53:35.662Z,101021.47
2023-05-20T22:56:02.392Z,101029.28
2023-05-20T22:58:29.721Z,101015.97
2023-05-20T23:00:56.541Z,101017.13
2023-05-20T23:03:23.121Z,101022.59
2023-05-20T23:05:49.683Z,101021.09
2023-05-20T23:08:16.394Z,101025.31
2023-05-20T23:10:42.874Z,101017.50
2023-05-20T23:13:09.370Z,101017.66
2023-05-20T23:15:36.649Z,101021.94
2023-05-20T23:18:03.524Z,101008.44
2023-05-20T23:20:30.053Z,101015.94
2023-05-20T23:22:56.610Z,101021.19
2023-05-20T23:25:24.426Z,101019.50
2023-05-20T23:27:51.029Z,101013.34
2023-05-20T23:30:17.710Z,101017.78
2023-05-20T23:32:44.281Z,101026.16
2023-05-20T23:35:12.055Z,101014.88
2023-05-20T23:37:38.858Z,101011.28
2023-05-20T23:40:06.544Z,101021.50
2023-05-20T23:42:33.054Z,101009.91
2023-05-20T23:44:59.565Z,101013.97
2023-05-20T23:47:29.941Z,101009.03
2023-05-20T23:49:57.486Z,101008.69
2023-05-20T23:52:26.536Z,101015.50
2023-05-20T23:54:53.126Z,101012.06
2023-05-20T23:57:20.762Z,101012.06
2023-05-20T23:59:49.019Z,101002.13
